aviador You're here:

LEVC Decoded Metar

VALENCIA in SPAIN
Report Time2014-08-01 13:30:00
UTC Time2014-08-01 13:51:30
Flight Rules vfr VFR
Wind090° at 07 kt
W.Decomp.*RWY 12: 6.1 kt HW 3.4 kt LCW
W.Rank090° ranks 8
Current wind is below 090° avg. (7.1)
Visibility9999 m
Phenomena:N/A
Clouds:Few 035 Hf
Expected CloudBase > 3,600 ft AGL from Temp-Dew spread
CeilingNone
Temp30°C (ISA +15)
Dew Point21°C (59% RH)
Heat Index32.6°C
QNH1008 hPa
Density Alt2,464 ft
Elevation203 ft
Report Wrong Elevation
Raw Report
LEVC 011330Z 09007KT 050V120 9999 FEW035 30/21 Q1008 NOSIG=

Flight School in Barcelona

Extra information for LEVC:More info


Webcam Valencia